Time,TemperatureF,DewpointF,PressureIn,WindDirection,WindDirectionDegrees,WindSpeedMPH,WindSpeedGustMPH,Humidity,HourlyPrecipIn,Conditions,Clouds,dailyrainin,SoftwareType,DateUTC
2013-11-23 00:21:00,22.0,4.0,-100.00,WSW,240,6.0,7.0,45,-99.99,,,0.00,,2013-11-23 07:21:00,
2013-11-23 00:42:00,20.0,4.0,-100.00,West,280,6.0,7.0,48,-99.99,,,0.00,,2013-11-23 07:42:00,
2013-11-23 00:52:00,20.0,4.0,-100.00,West,280,6.0,7.0,48,-99.99,,,0.00,,2013-11-23 07:52:00,
2013-11-23 01:00:00,19.0,4.0,-100.00,WSW,240,6.0,7.0,50,-99.99,,,0.00,,2013-11-23 08:00:00,
2013-11-23 01:12:00,20.0,4.0,-100.00,WSW,250,6.0,6.0,49,-99.99,,,0.00,,2013-11-23 08:12:00,
2013-11-23 01:21:00,20.0,4.0,-100.00,WSW,250,6.0,6.0,49,-99.99,,,0.00,,2013-11-23 08:21:00,
2013-11-23 01:42:00,19.0,4.0,-100.00,WSW,240,6.0,7.0,50,-99.99,,,0.00,,2013-11-23 08:42:00,
2013-11-23 01:52:00,19.0,4.0,-100.00,WSW,240,6.0,7.0,50,-99.99,,,0.00,,2013-11-23 08:52:00,
2013-11-23 02:01:00,17.0,3.0,-100.00,SSW,205,6.0,6.0,53,-99.99,,,0.00,,2013-11-23 09:01:00,
2013-11-23 02:22:00,18.0,4.0,-100.00,WSW,245,4.0,6.0,53,-99.99,,,0.00,,2013-11-23 09:22:00,
2013-11-23 02:43:00,17.0,3.0,-100.00,SSW,205,6.0,6.0,53,-99.99,,,0.00,,2013-11-23 09:43:00,
2013-11-23 02:54:00,17.0,3.0,-100.00,SSW,205,6.0,6.0,53,-99.99,,,0.00,,2013-11-23 09:54:00,
2013-11-23 03:00:00,18.0,3.0,-100.00,South,185,5.0,6.0,52,-99.99,,,0.00,,2013-11-23 10:00:00,
2013-11-23 03:23:00,17.0,3.0,-100.00,SW,225,4.0,6.0,53,-99.99,,,0.00,,2013-11-23 10:23:00,
2013-11-23 03:42:00,18.0,3.0,-100.00,South,185,5.0,6.0,52,-99.99,,,0.00,,2013-11-23 10:42:00,
2013-11-23 03:52:00,18.0,3.0,-100.00,South,185,5.0,6.0,52,-99.99,,,0.00,,2013-11-23 10:52:00,
2013-11-23 04:00:00,20.0,3.0,-100.00,SW,215,4.0,5.0,48,-99.99,,,0.00,,2013-11-23 11:00:00,
2013-11-23 04:22:00,20.0,3.0,-100.00,SSW,200,5.0,6.0,48,-99.99,,,0.00,,2013-11-23 11:22:00,
2013-11-23 04:42:00,20.0,3.0,-100.00,SW,215,4.0,5.0,48,-99.99,,,0.00,,2013-11-23 11:42:00,
2013-11-23 04:52:00,20.0,3.0,-100.00,SW,215,4.0,5.0,48,-99.99,,,0.00,,2013-11-23 11:52:00,
2013-11-23 05:00:00,17.0,3.0,-100.00,WSW,240,5.0,5.0,53,-99.99,,,0.00,,2013-11-23 12:00:00,
2013-11-23 05:22:00,18.0,3.0,-100.00,WSW,255,5.0,6.0,51,-99.99,,,0.00,,2013-11-23 12:22:00,
2013-11-23 05:42:00,17.0,3.0,-100.00,WSW,240,5.0,5.0,53,-99.99,,,0.00,,2013-11-23 12:42:00,
2013-11-23 05:52:00,17.0,3.0,-100.00,WSW,240,5.0,5.0,53,-99.99,,,0.00,,2013-11-23 12:52:00,
2013-11-23 06:00:00,17.0,3.0,-100.00,SW,235,6.0,7.0,53,-99.99,,,0.00,,2013-11-23 13:00:00,
2013-11-23 06:22:00,17.0,3.0,-100.00,SSW,210,6.0,6.0,53,-99.99,,,0.00,,2013-11-23 13:22:00,
2013-11-23 06:42:00,17.0,3.0,-100.00,SW,235,6.0,7.0,53,-99.99,,,0.00,,2013-11-23 13:42:00,
2013-11-23 06:52:00,17.0,3.0,-100.00,SW,235,6.0,7.0,53,-99.99,,,0.00,,2013-11-23 13:52:00,
2013-11-23 07:00:00,15.0,2.0,-100.00,SSW,195,6.0,7.0,55,-99.99,,,0.00,,2013-11-23 14:00:00,
2013-11-23 07:21:00,16.0,2.0,-100.00,SSW,210,4.0,5.0,53,-99.99,,,0.00,,2013-11-23 14:21:00,
2013-11-23 07:42:00,15.0,2.0,-100.00,SSW,195,6.0,7.0,55,-99.99,,,0.00,,2013-11-23 14:42:00,
2013-11-23 07:52:00,15.0,2.0,-100.00,SSW,195,6.0,7.0,55,-99.99,,,0.00,,2013-11-23 14:52:00,
2013-11-23 08:01:00,17.0,3.0,-100.00,SSW,205,6.0,7.0,54,-99.99,,,0.00,,2013-11-23 15:01:00,
2013-11-23 08:22:00,15.0,2.0,-100.00,SSW,200,8.0,9.0,55,-99.99,,,0.00,,2013-11-23 15:22:00,
2013-11-23 08:43:00,17.0,3.0,-100.00,SSW,205,6.0,7.0,54,-99.99,,,0.00,,2013-11-23 15:43:00,
2013-11-23 08:54:00,17.0,3.0,-100.00,SSW,205,6.0,7.0,54,-99.99,,,0.00,,2013-11-23 15:54:00,
2013-11-23 09:01:00,23.0,7.0,-100.00,SW,230,3.0,4.0,48,-99.99,,,0.00,,2013-11-23 16:01:00,
2013-11-23 09:23:00,20.0,4.0,-100.00,SSW,195,3.0,6.0,51,-99.99,,,0.00,,2013-11-23 16:23:00,
2013-11-23 09:43:00,23.0,7.0,-100.00,SW,230,3.0,4.0,48,-99.99,,,0.00,,2013-11-23 16:43:00,
2013-11-23 09:53:00,23.0,7.0,-100.00,SW,230,3.0,4.0,48,-99.99,,,0.00,,2013-11-23 16:53:00,
2013-11-23 10:00:00,28.0,10.0,-100.00,SW,235,3.0,4.0,46,-99.99,,,0.00,,2013-11-23 17:00:00,
2013-11-23 10:22:00,26.0,8.0,-100.00,SSW,205,2.0,4.0,46,-99.99,,,0.00,,2013-11-23 17:22:00,
2013-11-23 10:42:00,28.0,10.0,-100.00,SW,235,3.0,4.0,46,-99.99,,,0.00,,2013-11-23 17:42:00,
2013-11-23 10:52:00,28.0,10.0,-100.00,SW,235,3.0,4.0,46,-99.99,,,0.00,,2013-11-23 17:52:00,
2013-11-23 11:01:00,31.0,10.0,-100.00,SW,230,3.0,5.0,41,-99.99,,,0.00,,2013-11-23 18:01:00,
2013-11-23 11:22:00,31.0,11.0,-100.00,WNW,290,3.0,4.0,43,-99.99,,,0.00,,2013-11-23 18:22:00,
2013-11-23 11:31:00,33.0,11.0,-100.00,SW,225,4.0,6.0,40,-99.99,,,0.00,,2013-11-23 18:31:00,
2013-11-23 11:42:00,31.0,10.0,-100.00,SW,230,3.0,5.0,41,-99.99,,,0.00,,2013-11-23 18:42:00,
2013-11-23 11:52:00,31.0,10.0,-100.00,SW,230,3.0,5.0,41,-99.99,,,0.00,,2013-11-23 18:52:00,
2013-11-23 12:00:00,35.0,12.0,-100.00,SSW,210,3.0,6.0,38,-99.99,,,0.00,,2013-11-23 19:00:00,
2013-11-23 12:21:00,33.0,11.0,-100.00,SW,225,4.0,6.0,40,-99.99,,,0.00,,2013-11-23 19:21:00,
2013-11-23 12:52:00,35.0,12.0,-100.00,SSW,210,3.0,6.0,38,-99.99,,,0.00,,2013-11-23 19:52:00,
2013-11-23 13:00:00,39.0,14.0,-100.00,SSW,205,1.0,4.0,36,-99.99,,,0.00,,2013-11-23 20:00:00,
2013-11-23 13:21:00,36.0,13.0,-100.00,WSW,245,3.0,6.0,38,-99.99,,,0.00,,2013-11-23 20:21:00,
2013-11-23 13:42:00,39.0,14.0,-100.00,SSW,205,1.0,4.0,36,-99.99,,,0.00,,2013-11-23 20:42:00,
2013-11-23 13:52:00,39.0,14.0,-100.00,SSW,205,1.0,4.0,36,-99.99,,,0.00,,2013-11-23 20:52:00,
2013-11-23 14:01:00,41.0,15.0,-100.00,SSW,200,5.0,7.0,35,-99.99,,,0.00,,2013-11-23 21:01:00,
2013-11-23 14:21:00,40.0,15.0,-100.00,SW,235,1.0,5.0,36,-99.99,,,0.00,,2013-11-23 21:21:00,
2013-11-23 14:43:00,41.0,15.0,-100.00,SSW,200,5.0,7.0,35,-99.99,,,0.00,,2013-11-23 21:43:00,
2013-11-23 14:53:00,41.0,15.0,-100.00,SSW,200,5.0,7.0,35,-99.99,,,0.00,,2013-11-23 21:53:00,
2013-11-23 15:00:00,41.0,16.0,-100.00,WNW,295,2.0,4.0,35,-99.99,,,0.00,,2013-11-23 22:00:00,
2013-11-23 15:23:00,40.0,14.0,-100.00,SSW,195,7.0,10.0,35,-99.99,,,0.00,,2013-11-23 22:23:00,
2013-11-23 15:43:00,41.0,16.0,-100.00,WNW,295,2.0,4.0,35,-99.99,,,0.00,,2013-11-23 22:43:00,
2013-11-23 15:52:00,41.0,16.0,-100.00,WNW,295,2.0,4.0,35,-99.99,,,0.00,,2013-11-23 22:52:00,
2013-11-23 16:01:00,37.0,15.0,-100.00,North,5,3.0,4.0,39,-99.99,,,0.00,,2013-11-23 23:01:00,
2013-11-23 16:21:00,40.0,16.0,-100.00,North,0,3.0,3.0,37,-99.99,,,0.00,,2013-11-23 23:21:00,
2013-11-23 16:42:00,37.0,15.0,-100.00,North,5,3.0,4.0,39,-99.99,,,0.00,,2013-11-23 23:42:00,
2013-11-23 16:53:00,37.0,15.0,-100.00,North,5,3.0,4.0,39,-99.99,,,0.00,,2013-11-23 23:53:00,
2013-11-23 17:01:00,31.0,12.0,-100.00,North,355,6.0,7.0,46,-99.99,,,0.00,,2013-11-24 00:01:00,
2013-11-23 17:42:00,31.0,12.0,-100.00,North,355,6.0,7.0,46,-99.99,,,0.00,,2013-11-24 00:42:00,
2013-11-23 17:52:00,31.0,12.0,-100.00,North,355,6.0,7.0,46,-99.99,,,0.00,,2013-11-24 00:52:00,
2013-11-23 18:00:00,30.0,12.0,-100.00,North,350,4.0,4.0,46,-99.99,,,0.00,,2013-11-24 01:00:00,
2013-11-23 18:22:00,29.0,12.0,-100.00,North,0,4.0,4.0,48,-99.99,,,0.00,,2013-11-24 01:22:00,
2013-11-23 18:42:00,30.0,12.0,-100.00,North,350,4.0,4.0,46,-99.99,,,0.00,,2013-11-24 01:42:00,
2013-11-23 18:52:00,30.0,12.0,-100.00,North,350,4.0,4.0,46,-99.99,,,0.00,,2013-11-24 01:52:00,
2013-11-23 19:00:00,26.0,9.0,-100.00,West,280,3.0,4.0,48,-99.99,,,0.00,,2013-11-24 02:00:00,
2013-11-23 19:22:00,27.0,10.0,-100.00,NW,320,3.0,4.0,48,-99.99,,,0.00,,2013-11-24 02:22:00,
2013-11-23 19:42:00,26.0,9.0,-100.00,West,280,3.0,4.0,48,-99.99,,,0.00,,2013-11-24 02:42:00,
2013-11-23 19:52:00,26.0,9.0,-100.00,West,280,3.0,4.0,48,-99.99,,,0.00,,2013-11-24 02:52:00,
2013-11-23 20:00:00,-999.0,-99.9,-100.00,SW,235,3.0,4.0,48,-99.99,,,0.00,,2013-11-24 03:00:00,
2013-11-23 20:22:00,26.0,9.0,-100.00,SW,230,1.0,3.0,48,-99.99,,,0.00,,2013-11-24 03:22:00,
2013-11-23 20:43:00,26.0,9.0,-100.00,SW,235,3.0,4.0,48,-99.99,,,0.00,,2013-11-24 03:43:00,
2013-11-23 20:53:00,26.0,9.0,-100.00,SW,235,3.0,4.0,48,-99.99,,,0.00,,2013-11-24 03:53:00,
2013-11-23 21:00:00,25.0,9.0,-100.00,SW,220,4.0,6.0,51,-99.99,,,0.00,,2013-11-24 04:00:00,
2013-11-23 21:23:00,25.0,10.0,-100.00,SSW,200,4.0,6.0,51,-99.99,,,0.00,,2013-11-24 04:23:00,
2013-11-23 21:42:00,25.0,9.0,-100.00,SW,220,4.0,6.0,51,-99.99,,,0.00,,2013-11-24 04:42:00,
2013-11-23 21:53:00,25.0,9.0,-100.00,SW,220,4.0,6.0,51,-99.99,,,0.00,,2013-11-24 04:53:00,
2013-11-23 22:00:00,24.0,9.0,-100.00,SW,220,6.0,7.0,52,-99.99,,,0.00,,2013-11-24 05:00:00,
2013-11-23 22:22:00,25.0,9.0,-100.00,SW,215,6.0,7.0,51,-99.99,,,0.00,,2013-11-24 05:22:00,
2013-11-23 22:43:00,24.0,9.0,-100.00,SW,220,6.0,7.0,52,-99.99,,,0.00,,2013-11-24 05:43:00,
2013-11-23 22:53:00,24.0,9.0,-100.00,SW,220,6.0,7.0,52,-99.99,,,0.00,,2013-11-24 05:53:00,
2013-11-23 23:00:00,27.0,10.0,-100.00,South,175,7.0,8.0,48,-99.99,,,0.00,,2013-11-24 06:00:00,
2013-11-23 23:21:00,25.0,9.0,-100.00,SSW,205,6.0,8.0,51,-99.99,,,0.00,,2013-11-24 06:21:00,
2013-11-23 23:42:00,27.0,10.0,-100.00,South,175,7.0,8.0,48,-99.99,,,0.00,,2013-11-24 06:42:00,
2013-11-23 23:52:00,27.0,10.0,-100.00,South,175,7.0,8.0,48,-99.99,,,0.00,,2013-11-24 06:52:00,